Map

Track Data

SID SEASON NUMBER BASIN SUBBASIN NAME ISO_TIME NATURE LAT LON WMO_WIND WMO_PRES WMO_AGENCY TRACK_TYPE DIST2LAND LANDFALL IFLAG USA_AGENCY USA_ATCF_ID USA_LAT USA_LON USA_RECORD USA_STATUS USA_WIND USA_PRES USA_SSHS USA_R34_NE USA_R34_SE USA_R34_SW USA_R34_NW USA_R50_NE USA_R50_SE USA_R50_SW USA_R50_NW USA_R64_NE USA_R64_SE USA_R64_SW USA_R64_NW USA_POCI USA_ROCI USA_RMW USA_EYE TOKYO_LAT TOKYO_LON TOKYO_GRADE TOKYO_WIND TOKYO_PRES TOKYO_R50_DIR TOKYO_R50_LONG TOKYO_R50_SHORT TOKYO_R30_DIR TOKYO_R30_LONG TOKYO_R30_SHORT TOKYO_LAND CMA_LAT CMA_LON CMA_CAT CMA_WIND CMA_PRES HKO_LAT HKO_LON HKO_CAT HKO_WIND HKO_PRES NEWDELHI_LAT NEWDELHI_LON NEWDELHI_GRADE NEWDELHI_WIND NEWDELHI_PRES NEWDELHI_CI NEWDELHI_DP NEWDELHI_POCI REUNION_LAT REUNION_LON REUNION_TYPE REUNION_WIND REUNION_PRES REUNION_TNUM REUNION_CI REUNION_RMW REUNION_R34_NE REUNION_R34_SE REUNION_R34_SW REUNION_R34_NW REUNION_R50_NE REUNION_R50_SE REUNION_R50_SW REUNION_R50_NW REUNION_R64_NE REUNION_R64_SE REUNION_R64_SW REUNION_R64_NW BOM_LAT BOM_LON BOM_TYPE BOM_WIND BOM_PRES BOM_TNUM BOM_CI BOM_RMW BOM_R34_NE BOM_R34_SE BOM_R34_SW BOM_R34_NW BOM_R50_NE BOM_R50_SE BOM_R50_SW BOM_R50_NW BOM_R64_NE BOM_R64_SE BOM_R64_SW BOM_R64_NW BOM_ROCI BOM_POCI BOM_EYE BOM_POS_METHOD BOM_PRES_METHOD NADI_LAT NADI_LON NADI_CAT NADI_WIND NADI_PRES WELLINGTON_LAT WELLINGTON_LON WELLINGTON_WIND WELLINGTON_PRES DS824_LAT DS824_LON DS824_STAGE DS824_WIND DS824_PRES TD9636_LAT TD9636_LON TD9636_STAGE TD9636_WIND TD9636_PRES TD9635_LAT TD9635_LON TD9635_WIND TD9635_PRES TD9635_ROCI NEUMANN_LAT NEUMANN_LON NEUMANN_CLASS NEUMANN_WIND NEUMANN_PRES MLC_LAT MLC_LON MLC_CLASS MLC_WIND MLC_PRES USA_GUST BOM_GUST BOM_GUST_PER REUNION_GUST REUNION_GUST_PER USA_SEAHGT USA_SEARAD_NE USA_SEARAD_SE USA_SEARAD_SW USA_SEARAD_NW STORM_SPEED STORM_DIR
1872046S13104 1872 8 SI WA NOT_NAMED 1872-02-14 18:00:00 NR -13.3000 104.300 main 699 699 __________O___ -1 -13.3000 104.300 7 10 256
1872046S13104 1872 8 SI WA NOT_NAMED 1872-02-14 21:00:00 NR -13.4260 103.794 main 729 729 __________P___ -1 -13.4260 103.794 7 10 255
1872046S13104 1872 8 SI WA NOT_NAMED 1872-02-15 00:00:00 NR -13.5512 103.311 main 772 772 __________P___ -1 -13.5512 103.311 7 9 254
1872046S13104 1872 8 SI WA NOT_NAMED 1872-02-15 03:00:00 NR -13.6757 102.872 main 802 802 __________P___ -1 -13.6757 102.872 7 8 252
1872046S13104 1872 8 SI WA NOT_NAMED 1872-02-15 06:00:00 NR -13.8000 102.500 main 834 834 __________O___ -1 -13.8000 102.500 7 7 249
1872046S13104 1872 8 SI WA NOT_NAMED 1872-02-15 09:00:00 NR -13.9245 102.210 main 860 860 __________P___ -1 -13.9245 102.210 7 6 244
1872046S13104 1872 8 SI WA NOT_NAMED 1872-02-15 12:00:00 NR -14.0494 101.982 main 879 879 __________P___ -1 -14.0494 101.982 7 5 239
1872046S13104 1872 8 SI WA NOT_NAMED 1872-02-15 15:00:00 NR -14.1746 101.788 main 908 908 __________P___ -1 -14.1746 101.788 7 4 236
1872046S13104 1872 8 SI WA NOT_NAMED 1872-02-15 18:00:00 NR -14.3000 101.600 main 927 927 __________O___ -1 -14.3000 101.600 7 5 237
1872046S13104 1872 8 SI WA NOT_NAMED 1872-02-15 21:00:00 NR -14.4331 101.371 main 947 947 __________P___ -1 -14.4331 101.371 7 5 239
1872046S13104 1872 8 SI WA NOT_NAMED 1872-02-16 00:00:00 NR -14.5650 101.143 main 981 981 __________P___ -1 -14.5650 101.143 7 5 240
1872046S13104 1872 8 SI WA NOT_NAMED 1872-02-16 03:00:00 NR -14.6893 100.918 main 1001 1001 __________P___ -1 -14.6893 100.918 7 5 241
1872046S13104 1872 8 SI WA NOT_NAMED 1872-02-16 06:00:00 NR -14.8000 100.700 main 1021 1021 __________O___ -1 -14.8000 100.700 7 4 246
1872046S13104 1872 8 SI WA NOT_NAMED 1872-02-16 09:00:00 NR -14.8730 100.501 main 1042 1042 __________P___ -1 -14.8730 100.501 7 4 250
1872046S13104 1872 8 SI WA NOT_NAMED 1872-02-16 12:00:00 NR -14.9348 100.307 main 1053 1053 __________P___ -1 -14.9348 100.307 7 4 251
1872046S13104 1872 8 SI WA NOT_NAMED 1872-02-16 15:00:00 NR -15.0042 100.110 main 1073 1073 __________P___ -1 -15.0042 100.110 7 4 247
1872046S13104 1872 8 SI WA NOT_NAMED 1872-02-16 18:00:00 NR -15.1000 99.9000 main 1094 1094 __________O___ -1 -15.1000 99.9000 7 5 240
1872046S13104 1872 8 SI WA NOT_NAMED 1872-02-16 21:00:00 NR -15.2420 99.6805 main 1115 1115 __________P___ -1 -15.2420 99.6805 7 5 235
1872046S13104 1872 8 SI WA NOT_NAMED 1872-02-17 00:00:00 NR -15.4123 99.4448 main 1152 1152 __________P___ -1 -15.4123 99.4448 7 6 233
1872046S13104 1872 8 SI WA NOT_NAMED 1872-02-17 03:00:00 NR -15.6014 99.1867 main 1182 1182 __________P___ -1 -15.6014 99.1867 7 7 234
1872046S13104 1872 8 SI WA NOT_NAMED 1872-02-17 06:00:00 NR -15.8000 98.9000 main 1219 1219 __________O___ -1 -15.8000 98.9000 7 7 237
1872046S13104 1872 8 SI WA NOT_NAMED 1872-02-17 09:00:00 NR -15.9890 98.5626 main 1256 1256 __________P___ -1 -15.9890 98.5626 7 8 240
1872046S13104 1872 8 SI WA NOT_NAMED 1872-02-17 12:00:00 NR -16.1853 98.2001 main 1299 1299 __________P___ -1 -16.1853 98.2001 7 8 240
1872046S13104 1872 8 SI WA NOT_NAMED 1872-02-17 15:00:00 NR -16.3890 97.8375 main 1343 1343 __________P___ -1 -16.3890 97.8375 7 8 238
1872046S13104 1872 8 SI WA NOT_NAMED 1872-02-17 18:00:00 NR -16.6000 97.5000 main 1380 1380 __________O___ -1 -16.6000 97.5000 7 7 235
1872046S13104 1872 8 SI WA NOT_NAMED 1872-02-17 21:00:00 NR -16.8183 97.2064 main 1418 1418 __________P___ -1 -16.8183 97.2064 7 7 230
1872046S13104 1872 8 SI WA NOT_NAMED 1872-02-18 00:00:00 NR -17.0424 96.9502 main 1448 1448 __________P___ -1 -17.0424 96.9502 7 7 226
1872046S13104 1872 8 SI WA NOT_NAMED 1872-02-18 03:00:00 NR -17.2703 96.7190 main 1495 1495 __________P___ -1 -17.2703 96.7190 7 6 223
1872046S13104 1872 8 SI WA NOT_NAMED 1872-02-18 06:00:00 NR -17.5000 96.5000 main 1525 __________O___ -1 -17.5000 96.5000 7 6 222

About IBTrACS Database

This database is a web-friendly format of International Best Track Archive for Climate Stewardship (IBTrACS), a global best track data archive curated by NOAA dating back to 1842.

Updated: 2021-12-01